sensor_id;sensor_type;location;lat;lon;timestamp;temperature;humidity
68609;SHT31;55581;46.718;7.690;2022-07-29T00:00:20;17.64;84.11
68609;SHT31;55581;46.718;7.690;2022-07-29T00:02:48;17.64;84.36
68609;SHT31;55581;46.718;7.690;2022-07-29T00:05:13;17.69;84.20
68609;SHT31;55581;46.718;7.690;2022-07-29T00:07:41;17.64;84.76
68609;SHT31;55581;46.718;7.690;2022-07-29T00:10:07;17.62;83.61
68609;SHT31;55581;46.718;7.690;2022-07-29T00:12:33;17.64;83.29
68609;SHT31;55581;46.718;7.690;2022-07-29T00:15:00;17.74;85.82
68609;SHT31;55581;46.718;7.690;2022-07-29T00:17:50;17.82;86.29
68609;SHT31;55581;46.718;7.690;2022-07-29T00:20:16;17.96;85.71
68609;SHT31;55581;46.718;7.690;2022-07-29T00:22:41;17.95;84.28
68609;SHT31;55581;46.718;7.690;2022-07-29T00:25:07;17.85;83.15
68609;SHT31;55581;46.718;7.690;2022-07-29T00:27:36;17.52;83.56
68609;SHT31;55581;46.718;7.690;2022-07-29T00:30:03;17.31;84.07
68609;SHT31;55581;46.718;7.690;2022-07-29T00:32:28;17.31;84.07
68609;SHT31;55581;46.718;7.690;2022-07-29T00:34:54;17.28;83.57
68609;SHT31;55581;46.718;7.690;2022-07-29T00:37:38;17.30;85.03
68609;SHT31;55581;46.718;7.690;2022-07-29T00:40:03;17.42;85.64
68609;SHT31;55581;46.718;7.690;2022-07-29T00:42:29;17.54;84.89
68609;SHT31;55581;46.718;7.690;2022-07-29T00:44:54;17.62;84.76
68609;SHT31;55581;46.718;7.690;2022-07-29T00:47:20;17.71;84.82
68609;SHT31;55581;46.718;7.690;2022-07-29T00:49:45;17.78;85.18
68609;SHT31;55581;46.718;7.690;2022-07-29T00:52:13;17.89;86.51
68609;SHT31;55581;46.718;7.690;2022-07-29T00:54:39;17.93;86.34
68609;SHT31;55581;46.718;7.690;2022-07-29T00:57:06;17.83;84.87
68609;SHT31;55581;46.718;7.690;2022-07-29T00:59:32;17.66;85.37
68609;SHT31;55581;46.718;7.690;2022-07-29T01:01:57;17.57;84.05
68609;SHT31;55581;46.718;7.690;2022-07-29T01:04:25;17.31;84.26
68609;SHT31;55581;46.718;7.690;2022-07-29T01:06:51;17.19;85.33
68609;SHT31;55581;46.718;7.690;2022-07-29T01:09:17;17.16;85.84
68609;SHT31;55581;46.718;7.690;2022-07-29T01:11:46;17.10;86.22
68609;SHT31;55581;46.718;7.690;2022-07-29T01:14:13;17.03;85.77
68609;SHT31;55581;46.718;7.690;2022-07-29T01:16:46;17.00;85.58
68609;SHT31;55581;46.718;7.690;2022-07-29T01:21:57;16.87;85.01
68609;SHT31;55581;46.718;7.690;2022-07-29T01:24:44;16.82;85.31
68609;SHT31;55581;46.718;7.690;2022-07-29T01:27:22;16.77;85.34
68609;SHT31;55581;46.718;7.690;2022-07-29T01:29:56;16.71;85.81
68609;SHT31;55581;46.718;7.690;2022-07-29T01:32:26;16.73;84.84
68609;SHT31;55581;46.718;7.690;2022-07-29T01:34:54;16.75;84.49
68609;SHT31;55581;46.718;7.690;2022-07-29T01:37:26;16.83;87.86
68609;SHT31;55581;46.718;7.690;2022-07-29T01:39:55;16.96;89.12
68609;SHT31;55581;46.718;7.690;2022-07-29T01:42:44;17.13;90.27
68609;SHT31;55581;46.718;7.690;2022-07-29T01:45:18;17.19;85.82
68609;SHT31;55581;46.718;7.690;2022-07-29T01:48:52;17.06;83.63
68609;SHT31;55581;46.718;7.690;2022-07-29T01:51:18;17.09;85.51
68609;SHT31;55581;46.718;7.690;2022-07-29T01:53:49;17.24;86.58
68609;SHT31;55581;46.718;7.690;2022-07-29T01:56:16;17.21;84.87
68609;SHT31;55581;46.718;7.690;2022-07-29T01:58:45;17.17;85.75
68609;SHT31;55581;46.718;7.690;2022-07-29T02:01:12;17.14;86.54
68609;SHT31;55581;46.718;7.690;2022-07-29T02:03:39;17.17;87.99
68609;SHT31;55581;46.718;7.690;2022-07-29T02:06:07;17.13;85.97
68609;SHT31;55581;46.718;7.690;2022-07-29T02:08:39;17.23;88.88
68609;SHT31;55581;46.718;7.690;2022-07-29T02:11:07;17.20;88.61
68609;SHT31;55581;46.718;7.690;2022-07-29T02:13:36;17.27;87.70
68609;SHT31;55581;46.718;7.690;2022-07-29T02:16:05;17.26;87.08
68609;SHT31;55581;46.718;7.690;2022-07-29T02:18:31;17.30;86.27
68609;SHT31;55581;46.718;7.690;2022-07-29T02:21:00;17.35;88.12
68609;SHT31;55581;46.718;7.690;2022-07-29T02:23:30;17.32;85.11
68609;SHT31;55581;46.718;7.690;2022-07-29T02:25:56;17.28;86.62
68609;SHT31;55581;46.718;7.690;2022-07-29T02:28:26;17.23;85.62
68609;SHT31;55581;46.718;7.690;2022-07-29T02:30:54;17.10;84.48
68609;SHT31;55581;46.718;7.690;2022-07-29T02:33:22;17.04;84.70
68609;SHT31;55581;46.718;7.690;2022-07-29T02:35:49;16.97;85.30
68609;SHT31;55581;46.718;7.690;2022-07-29T02:38:16;16.94;85.83
68609;SHT31;55581;46.718;7.690;2022-07-29T02:41:05;16.96;85.77
68609;SHT31;55581;46.718;7.690;2022-07-29T02:43:34;16.89;86.65
68609;SHT31;55581;46.718;7.690;2022-07-29T02:46:02;16.87;87.21
68609;SHT31;55581;46.718;7.690;2022-07-29T02:48:37;16.76;86.33
68609;SHT31;55581;46.718;7.690;2022-07-29T02:51:12;16.73;84.08
68609;SHT31;55581;46.718;7.690;2022-07-29T02:53:38;16.71;83.92
68609;SHT31;55581;46.718;7.690;2022-07-29T02:56:19;16.68;84.98
68609;SHT31;55581;46.718;7.690;2022-07-29T02:58:57;16.66;84.93
68609;SHT31;55581;46.718;7.690;2022-07-29T03:01:25;16.56;85.37
68609;SHT31;55581;46.718;7.690;2022-07-29T03:03:54;16.54;85.28
68609;SHT31;55581;46.718;7.690;2022-07-29T03:06:22;16.52;85.36
68609;SHT31;55581;46.718;7.690;2022-07-29T03:08:51;16.41;85.63
68609;SHT31;55581;46.718;7.690;2022-07-29T03:11:17;16.44;87.03
68609;SHT31;55581;46.718;7.690;2022-07-29T03:13:43;16.48;87.40
68609;SHT31;55581;46.718;7.690;2022-07-29T03:16:09;16.52;86.14
68609;SHT31;55581;46.718;7.690;2022-07-29T03:18:36;16.47;85.83
68609;SHT31;55581;46.718;7.690;2022-07-29T03:21:03;16.47;86.29
68609;SHT31;55581;46.718;7.690;2022-07-29T03:23:30;16.44;87.45
68609;SHT31;55581;46.718;7.690;2022-07-29T03:25:56;16.45;86.81
68609;SHT31;55581;46.718;7.690;2022-07-29T03:28:22;16.45;86.78
68609;SHT31;55581;46.718;7.690;2022-07-29T03:30:49;16.42;87.03
68609;SHT31;55581;46.718;7.690;2022-07-29T03:33:14;16.47;86.91
68609;SHT31;55581;46.718;7.690;2022-07-29T03:35:40;16.47;88.02
68609;SHT31;55581;46.718;7.690;2022-07-29T03:38:06;16.42;87.38
68609;SHT31;55581;46.718;7.690;2022-07-29T03:40:46;16.48;87.19
68609;SHT31;55581;46.718;7.690;2022-07-29T03:43:15;16.48;87.27
68609;SHT31;55581;46.718;7.690;2022-07-29T03:45:45;16.54;87.60
68609;SHT31;55581;46.718;7.690;2022-07-29T03:48:14;16.42;85.81
68609;SHT31;55581;46.718;7.690;2022-07-29T03:50:40;16.47;86.40
68609;SHT31;55581;46.718;7.690;2022-07-29T03:53:08;16.49;86.38
68609;SHT31;55581;46.718;7.690;2022-07-29T03:55:42;16.45;86.46
68609;SHT31;55581;46.718;7.690;2022-07-29T03:58:12;16.47;86.62
68609;SHT31;55581;46.718;7.690;2022-07-29T04:00:39;16.42;87.47
68609;SHT31;55581;46.718;7.690;2022-07-29T04:03:05;16.45;86.89
68609;SHT31;55581;46.718;7.690;2022-07-29T04:05:32;16.41;87.03
68609;SHT31;55581;46.718;7.690;2022-07-29T04:07:58;16.44;85.86
68609;SHT31;55581;46.718;7.690;2022-07-29T04:10:23;16.41;85.53
68609;SHT31;55581;46.718;7.690;2022-07-29T04:12:49;16.49;86.55
68609;SHT31;55581;46.718;7.690;2022-07-29T04:15:19;16.54;87.76
68609;SHT31;55581;46.718;7.690;2022-07-29T04:17:45;16.62;87.40
68609;SHT31;55581;46.718;7.690;2022-07-29T04:20:10;16.59;86.23
68609;SHT31;55581;46.718;7.690;2022-07-29T04:22:39;16.69;85.95
68609;SHT31;55581;46.718;7.690;2022-07-29T04:25:04;16.79;87.36
68609;SHT31;55581;46.718;7.690;2022-07-29T04:27:30;16.86;87.83
68609;SHT31;55581;46.718;7.690;2022-07-29T04:29:58;16.96;87.27
68609;SHT31;55581;46.718;7.690;2022-07-29T04:32:24;17.04;86.72
68609;SHT31;55581;46.718;7.690;2022-07-29T04:34:50;17.16;86.61
68609;SHT31;55581;46.718;7.690;2022-07-29T04:37:15;17.23;86.11
68609;SHT31;55581;46.718;7.690;2022-07-29T04:39:40;17.23;85.94
68609;SHT31;55581;46.718;7.690;2022-07-29T04:42:06;17.17;85.72
68609;SHT31;55581;46.718;7.690;2022-07-29T04:44:33;17.14;85.45
68609;SHT31;55581;46.718;7.690;2022-07-29T04:46:59;17.13;85.22
68609;SHT31;55581;46.718;7.690;2022-07-29T04:49:30;17.16;85.71
68609;SHT31;55581;46.718;7.690;2022-07-29T04:51:55;17.32;85.92
68609;SHT31;55581;46.718;7.690;2022-07-29T04:54:21;17.41;85.77
68609;SHT31;55581;46.718;7.690;2022-07-29T04:56:46;17.59;85.50
68609;SHT31;55581;46.718;7.690;2022-07-29T04:59:12;17.79;84.45
68609;SHT31;55581;46.718;7.690;2022-07-29T05:01:38;17.89;83.19
68609;SHT31;55581;46.718;7.690;2022-07-29T05:04:03;18.02;82.62
68609;SHT31;55581;46.718;7.690;2022-07-29T05:06:29;18.03;82.52
68609;SHT31;55581;46.718;7.690;2022-07-29T05:08:54;18.03;82.50
68609;SHT31;55581;46.718;7.690;2022-07-29T05:11:22;17.99;82.58
68609;SHT31;55581;46.718;7.690;2022-07-29T05:13:47;17.92;83.79
68609;SHT31;55581;46.718;7.690;2022-07-29T05:16:13;17.86;84.32
68609;SHT31;55581;46.718;7.690;2022-07-29T05:18:41;17.87;84.81
68609;SHT31;55581;46.718;7.690;2022-07-29T05:21:07;17.85;84.51
68609;SHT31;55581;46.718;7.690;2022-07-29T05:23:35;17.82;84.16
68609;SHT31;55581;46.718;7.690;2022-07-29T05:26:01;17.82;84.46
68609;SHT31;55581;46.718;7.690;2022-07-29T05:28:27;17.82;84.71
68609;SHT31;55581;46.718;7.690;2022-07-29T05:30:55;17.92;84.19
68609;SHT31;55581;46.718;7.690;2022-07-29T05:33:21;17.95;83.50
68609;SHT31;55581;46.718;7.690;2022-07-29T05:35:48;18.12;81.93
68609;SHT31;55581;46.718;7.690;2022-07-29T05:38:16;18.24;82.07
68609;SHT31;55581;46.718;7.690;2022-07-29T05:40:42;18.36;82.16
68609;SHT31;55581;46.718;7.690;2022-07-29T05:43:08;18.45;81.10
68609;SHT31;55581;46.718;7.690;2022-07-29T05:45:34;18.52;80.90
68609;SHT31;55581;46.718;7.690;2022-07-29T05:47:59;18.57;80.03
68609;SHT31;55581;46.718;7.690;2022-07-29T05:50:25;18.59;79.82
68609;SHT31;55581;46.718;7.690;2022-07-29T05:52:50;18.79;78.99
68609;SHT31;55581;46.718;7.690;2022-07-29T05:55:17;18.72;80.50
68609;SHT31;55581;46.718;7.690;2022-07-29T05:57:45;18.82;79.75
68609;SHT31;55581;46.718;7.690;2022-07-29T06:00:11;18.75;79.67
68609;SHT31;55581;46.718;7.690;2022-07-29T06:02:37;18.78;79.92
68609;SHT31;55581;46.718;7.690;2022-07-29T06:05:02;18.75;80.01
68609;SHT31;55581;46.718;7.690;2022-07-29T06:07:30;18.76;80.55
68609;SHT31;55581;46.718;7.690;2022-07-29T06:09:58;18.85;79.99
68609;SHT31;55581;46.718;7.690;2022-07-29T06:12:23;18.96;79.82
68609;SHT31;55581;46.718;7.690;2022-07-29T06:14:48;19.03;80.07
68609;SHT31;55581;46.718;7.690;2022-07-29T06:17:16;19.16;78.72
68609;SHT31;55581;46.718;7.690;2022-07-29T06:19:41;19.22;79.84
68609;SHT31;55581;46.718;7.690;2022-07-29T06:22:07;19.31;78.67
68609;SHT31;55581;46.718;7.690;2022-07-29T06:24:36;19.40;78.63
68609;SHT31;55581;46.718;7.690;2022-07-29T06:27:03;19.50;77.83
68609;SHT31;55581;46.718;7.690;2022-07-29T06:29:31;19.58;77.32
68609;SHT31;55581;46.718;7.690;2022-07-29T06:31:56;19.61;78.37
68609;SHT31;55581;46.718;7.690;2022-07-29T06:34:22;19.74;77.02
68609;SHT31;55581;46.718;7.690;2022-07-29T06:36:47;19.74;77.54
68609;SHT31;55581;46.718;7.690;2022-07-29T06:39:14;19.67;77.22
68609;SHT31;55581;46.718;7.690;2022-07-29T06:41:40;19.48;77.57
68609;SHT31;55581;46.718;7.690;2022-07-29T06:44:05;19.44;78.20
68609;SHT31;55581;46.718;7.690;2022-07-29T06:46:33;19.40;79.15
68609;SHT31;55581;46.718;7.690;2022-07-29T06:49:06;19.31;78.04
68609;SHT31;55581;46.718;7.690;2022-07-29T06:51:31;19.44;78.11
68609;SHT31;55581;46.718;7.690;2022-07-29T06:53:57;19.57;77.00
68609;SHT31;55581;46.718;7.690;2022-07-29T06:56:22;19.60;76.98
68609;SHT31;55581;46.718;7.690;2022-07-29T06:58:48;19.68;77.05
68609;SHT31;55581;46.718;7.690;2022-07-29T07:01:13;19.81;76.59
68609;SHT31;55581;46.718;7.690;2022-07-29T07:03:39;19.85;75.69
68609;SHT31;55581;46.718;7.690;2022-07-29T07:06:04;19.86;76.78
68609;SHT31;55581;46.718;7.690;2022-07-29T07:08:30;20.05;76.84
68609;SHT31;55581;46.718;7.690;2022-07-29T07:10:55;20.02;75.58
68609;SHT31;55581;46.718;7.690;2022-07-29T07:13:22;20.05;75.75
68609;SHT31;55581;46.718;7.690;2022-07-29T07:15:48;20.12;75.46
68609;SHT31;55581;46.718;7.690;2022-07-29T07:18:14;20.15;75.72
68609;SHT31;55581;46.718;7.690;2022-07-29T07:20:40;20.30;74.65
68609;SHT31;55581;46.718;7.690;2022-07-29T07:23:06;20.41;74.31
68609;SHT31;55581;46.718;7.690;2022-07-29T07:25:36;20.41;74.09
68609;SHT31;55581;46.718;7.690;2022-07-29T07:28:02;20.51;74.05
68609;SHT31;55581;46.718;7.690;2022-07-29T07:30:31;20.47;72.91
68609;SHT31;55581;46.718;7.690;2022-07-29T07:32:56;20.58;72.39
68609;SHT31;55581;46.718;7.690;2022-07-29T07:35:22;20.67;73.14
68609;SHT31;55581;46.718;7.690;2022-07-29T07:37:47;20.85;73.08
68609;SHT31;55581;46.718;7.690;2022-07-29T07:40:13;21.03;72.86
68609;SHT31;55581;46.718;7.690;2022-07-29T07:42:40;21.29;72.11
68609;SHT31;55581;46.718;7.690;2022-07-29T07:45:06;21.39;70.62
68609;SHT31;55581;46.718;7.690;2022-07-29T07:47:34;21.34;70.11
68609;SHT31;55581;46.718;7.690;2022-07-29T07:49:59;21.54;69.29
68609;SHT31;55581;46.718;7.690;2022-07-29T07:52:26;21.87;68.11
68609;SHT31;55581;46.718;7.690;2022-07-29T07:54:52;22.15;67.12
68609;SHT31;55581;46.718;7.690;2022-07-29T07:57:18;22.42;66.09
68609;SHT31;55581;46.718;7.690;2022-07-29T07:59:43;22.61;64.25
68609;SHT31;55581;46.718;7.690;2022-07-29T08:02:09;22.54;63.71
68609;SHT31;55581;46.718;7.690;2022-07-29T08:04:34;22.56;66.78
68609;SHT31;55581;46.718;7.690;2022-07-29T08:07:00;22.90;65.03
68609;SHT31;55581;46.718;7.690;2022-07-29T08:09:27;23.07;64.13
68609;SHT31;55581;46.718;7.690;2022-07-29T08:11:53;23.28;64.24
68609;SHT31;55581;46.718;7.690;2022-07-29T08:14:21;23.16;64.51
68609;SHT31;55581;46.718;7.690;2022-07-29T08:16:46;23.09;63.88
68609;SHT31;55581;46.718;7.690;2022-07-29T08:19:12;22.92;62.83
68609;SHT31;55581;46.718;7.690;2022-07-29T08:21:40;22.68;63.92
68609;SHT31;55581;46.718;7.690;2022-07-29T08:24:06;22.71;63.78
68609;SHT31;55581;46.718;7.690;2022-07-29T08:26:50;22.59;63.21
68609;SHT31;55581;46.718;7.690;2022-07-29T08:29:20;22.56;62.76
68609;SHT31;55581;46.718;7.690;2022-07-29T08:31:46;22.52;65.17
68609;SHT31;55581;46.718;7.690;2022-07-29T08:34:14;22.56;63.72
68609;SHT31;55581;46.718;7.690;2022-07-29T08:36:39;22.59;65.27
68609;SHT31;55581;46.718;7.690;2022-07-29T08:39:05;22.68;64.97
68609;SHT31;55581;46.718;7.690;2022-07-29T08:41:30;22.84;63.84
68609;SHT31;55581;46.718;7.690;2022-07-29T08:43:56;22.92;64.68
68609;SHT31;55581;46.718;7.690;2022-07-29T08:46:22;23.15;65.55
68609;SHT31;55581;46.718;7.690;2022-07-29T08:48:48;23.39;62.86
68609;SHT31;55581;46.718;7.690;2022-07-29T08:51:16;23.74;63.09
68609;SHT31;55581;46.718;7.690;2022-07-29T08:53:44;23.88;59.44
68609;SHT31;55581;46.718;7.690;2022-07-29T08:56:14;24.36;56.54
68609;SHT31;55581;46.718;7.690;2022-07-29T08:58:40;23.94;55.67
68609;SHT31;55581;46.718;7.690;2022-07-29T09:01:08;24.48;54.85
68609;SHT31;55581;46.718;7.690;2022-07-29T09:03:36;24.76;52.64
68609;SHT31;55581;46.718;7.690;2022-07-29T09:06:03;24.83;51.53
68609;SHT31;55581;46.718;7.690;2022-07-29T09:08:32;24.51;53.75
68609;SHT31;55581;46.718;7.690;2022-07-29T09:10:57;24.22;58.10
68609;SHT31;55581;46.718;7.690;2022-07-29T09:13:25;23.70;60.36
68609;SHT31;55581;46.718;7.690;2022-07-29T09:15:50;23.18;61.38
68609;SHT31;55581;46.718;7.690;2022-07-29T09:18:39;22.68;63.95
68609;SHT31;55581;46.718;7.690;2022-07-29T09:21:06;22.33;67.31
68609;SHT31;55581;46.718;7.690;2022-07-29T09:24:09;22.10;66.62
68609;SHT31;55581;46.718;7.690;2022-07-29T09:26:39;21.81;71.45
68609;SHT31;55581;46.718;7.690;2022-07-29T09:29:23;21.67;73.81
68609;SHT31;55581;46.718;7.690;2022-07-29T09:31:51;21.46;74.18
68609;SHT31;55581;46.718;7.690;2022-07-29T09:34:22;21.27;72.18
68609;SHT31;55581;46.718;7.690;2022-07-29T09:36:52;21.40;76.78
68609;SHT31;55581;46.718;7.690;2022-07-29T09:39:29;21.36;77.58
68609;SHT31;55581;46.718;7.690;2022-07-29T09:42:01;21.50;76.12
68609;SHT31;55581;46.718;7.690;2022-07-29T09:44:27;21.37;78.74
68609;SHT31;55581;46.718;7.690;2022-07-29T09:47:07;21.32;77.70
68609;SHT31;55581;46.718;7.690;2022-07-29T09:52:23;21.94;74.42
68609;SHT31;55581;46.718;7.690;2022-07-29T09:54:49;21.97;74.82
68609;SHT31;55581;46.718;7.690;2022-07-29T09:57:28;22.23;76.27
68609;SHT31;55581;46.718;7.690;2022-07-29T10:00:06;22.42;73.86
68609;SHT31;55581;46.718;7.690;2022-07-29T10:02:33;22.53;73.42
68609;SHT31;55581;46.718;7.690;2022-07-29T10:05:00;22.74;72.55
68609;SHT31;55581;46.718;7.690;2022-07-29T10:07:52;22.80;68.94
68609;SHT31;55581;46.718;7.690;2022-07-29T10:10:22;22.86;68.81
68609;SHT31;55581;46.718;7.690;2022-07-29T10:12:52;22.91;69.43
68609;SHT31;55581;46.718;7.690;2022-07-29T10:15:23;22.94;67.69
68609;SHT31;55581;46.718;7.690;2022-07-29T10:17:49;22.90;68.23
68609;SHT31;55581;46.718;7.690;2022-07-29T10:20:15;22.84;68.00
68609;SHT31;55581;46.718;7.690;2022-07-29T10:22:42;22.84;70.43
68609;SHT31;55581;46.718;7.690;2022-07-29T10:25:09;22.75;69.59
68609;SHT31;55581;46.718;7.690;2022-07-29T10:27:38;22.60;69.30
68609;SHT31;55581;46.718;7.690;2022-07-29T10:30:05;22.78;70.96
68609;SHT31;55581;46.718;7.690;2022-07-29T10:38:55;22.44;70.98
68609;SHT31;55581;46.718;7.690;2022-07-29T10:46:40;22.18;77.93
68609;SHT31;55581;46.718;7.690;2022-07-29T10:49:26;22.08;77.11
68609;SHT31;55581;46.718;7.690;2022-07-29T10:54:41;21.84;77.50
68609;SHT31;55581;46.718;7.690;2022-07-29T10:59:50;21.80;76.15
68609;SHT31;55581;46.718;7.690;2022-07-29T11:05:07;22.15;71.24
68609;SHT31;55581;46.718;7.690;2022-07-29T11:07:34;21.98;71.26
68609;SHT31;55581;46.718;7.690;2022-07-29T11:15:11;21.49;75.49
68609;SHT31;55581;46.718;7.690;2022-07-29T11:23:32;20.89;79.66
68609;SHT31;55581;46.718;7.690;2022-07-29T11:26:13;20.61;80.88
68609;SHT31;55581;46.718;7.690;2022-07-29T11:29:14;20.26;80.57
68609;SHT31;55581;46.718;7.690;2022-07-29T11:31:45;19.85;80.92
68609;SHT31;55581;46.718;7.690;2022-07-29T11:34:16;19.58;76.42
68609;SHT31;55581;46.718;7.690;2022-07-29T11:39:44;19.54;82.22
68609;SHT31;55581;46.718;7.690;2022-07-29T11:47:58;19.97;83.34
68609;SHT31;55581;46.718;7.690;2022-07-29T11:52:53;20.37;77.50
68609;SHT31;55581;46.718;7.690;2022-07-29T11:55:20;20.61;76.81
68609;SHT31;55581;46.718;7.690;2022-07-29T11:57:57;21.00;73.30
68609;SHT31;55581;46.718;7.690;2022-07-29T12:02:54;21.58;68.62
68609;SHT31;55581;46.718;7.690;2022-07-29T12:05:21;21.74;76.27
68609;SHT31;55581;46.718;7.690;2022-07-29T12:07:47;21.99;73.20
68609;SHT31;55581;46.718;7.690;2022-07-29T12:10:13;21.92;75.76
68609;SHT31;55581;46.718;7.690;2022-07-29T12:12:39;22.01;75.56
68609;SHT31;55581;46.718;7.690;2022-07-29T12:15:18;22.04;75.22
68609;SHT31;55581;46.718;7.690;2022-07-29T12:17:46;22.04;75.46
68609;SHT31;55581;46.718;7.690;2022-07-29T12:20:12;21.91;75.14
68609;SHT31;55581;46.718;7.690;2022-07-29T12:22:41;21.71;75.04
68609;SHT31;55581;46.718;7.690;2022-07-29T12:25:13;21.74;74.96
68609;SHT31;55581;46.718;7.690;2022-07-29T12:27:43;21.77;74.98
68609;SHT31;55581;46.718;7.690;2022-07-29T12:30:14;21.63;76.73
68609;SHT31;55581;46.718;7.690;2022-07-29T12:32:46;21.64;74.43
68609;SHT31;55581;46.718;7.690;2022-07-29T12:35:19;21.42;79.84
68609;SHT31;55581;46.718;7.690;2022-07-29T12:37:47;21.44;79.16
68609;SHT31;55581;46.718;7.690;2022-07-29T12:40:18;21.55;78.58
68609;SHT31;55581;46.718;7.690;2022-07-29T12:43:12;21.43;77.35
68609;SHT31;55581;46.718;7.690;2022-07-29T12:45:41;21.36;77.57
68609;SHT31;55581;46.718;7.690;2022-07-29T12:48:09;21.33;78.44
68609;SHT31;55581;46.718;7.690;2022-07-29T12:50:56;21.33;79.56
68609;SHT31;55581;46.718;7.690;2022-07-29T12:53:23;21.40;80.29
68609;SHT31;55581;46.718;7.690;2022-07-29T12:55:52;21.40;83.24
68609;SHT31;55581;46.718;7.690;2022-07-29T12:58:36;21.34;83.27
68609;SHT31;55581;46.718;7.690;2022-07-29T13:01:15;21.23;81.70
68609;SHT31;55581;46.718;7.690;2022-07-29T13:06:36;20.96;84.80
68609;SHT31;55581;46.718;7.690;2022-07-29T13:11:52;20.78;82.91
68609;SHT31;55581;46.718;7.690;2022-07-29T13:14:31;20.58;84.79
68609;SHT31;55581;46.718;7.690;2022-07-29T13:17:11;20.40;85.32
68609;SHT31;55581;46.718;7.690;2022-07-29T13:22:13;20.27;85.72
68609;SHT31;55581;46.718;7.690;2022-07-29T13:27:19;19.55;80.83
68609;SHT31;55581;46.718;7.690;2022-07-29T13:29:46;19.16;80.80
68609;SHT31;55581;46.718;7.690;2022-07-29T13:32:12;18.78;81.69
68609;SHT31;55581;46.718;7.690;2022-07-29T13:34:38;18.55;80.45
68609;SHT31;55581;46.718;7.690;2022-07-29T13:37:05;18.13;83.68
68609;SHT31;55581;46.718;7.690;2022-07-29T13:39:30;18.04;83.73
68609;SHT31;55581;46.718;7.690;2022-07-29T13:41:58;17.81;84.53
68609;SHT31;55581;46.718;7.690;2022-07-29T13:44:23;17.75;84.83
68609;SHT31;55581;46.718;7.690;2022-07-29T13:46:50;17.82;86.59
68609;SHT31;55581;46.718;7.690;2022-07-29T13:49:16;17.89;87.69
68609;SHT31;55581;46.718;7.690;2022-07-29T13:51:41;17.97;87.05
68609;SHT31;55581;46.718;7.690;2022-07-29T13:54:07;17.96;85.98
68609;SHT31;55581;46.718;7.690;2022-07-29T13:56:33;17.89;87.40
68609;SHT31;55581;46.718;7.690;2022-07-29T13:59:03;17.79;87.40
68609;SHT31;55581;46.718;7.690;2022-07-29T14:01:29;17.89;88.80
68609;SHT31;55581;46.718;7.690;2022-07-29T14:03:55;17.86;87.45
68609;SHT31;55581;46.718;7.690;2022-07-29T14:06:21;17.97;88.98
68609;SHT31;55581;46.718;7.690;2022-07-29T14:08:48;18.03;88.03
68609;SHT31;55581;46.718;7.690;2022-07-29T14:11:13;18.06;88.69
68609;SHT31;55581;46.718;7.690;2022-07-29T14:13:41;18.16;88.20
68609;SHT31;55581;46.718;7.690;2022-07-29T14:16:07;18.16;86.90
68609;SHT31;55581;46.718;7.690;2022-07-29T14:18:33;17.92;86.35
68609;SHT31;55581;46.718;7.690;2022-07-29T14:21:00;17.89;87.24
68609;SHT31;55581;46.718;7.690;2022-07-29T14:23:25;17.95;87.25
68609;SHT31;55581;46.718;7.690;2022-07-29T14:25:51;17.92;87.66
68609;SHT31;55581;46.718;7.690;2022-07-29T14:28:16;17.86;88.53
68609;SHT31;55581;46.718;7.690;2022-07-29T14:30:42;17.81;89.21
68609;SHT31;55581;46.718;7.690;2022-07-29T14:33:10;17.89;88.93
68609;SHT31;55581;46.718;7.690;2022-07-29T14:35:35;18.09;89.12
68609;SHT31;55581;46.718;7.690;2022-07-29T14:38:01;18.14;89.95
68609;SHT31;55581;46.718;7.690;2022-07-29T14:40:26;18.43;85.35
68609;SHT31;55581;46.718;7.690;2022-07-29T14:42:52;18.61;84.24
68609;SHT31;55581;46.718;7.690;2022-07-29T14:45:17;18.55;82.97
68609;SHT31;55581;46.718;7.690;2022-07-29T14:47:43;18.51;83.94
68609;SHT31;55581;46.718;7.690;2022-07-29T14:50:11;18.45;85.51
68609;SHT31;55581;46.718;7.690;2022-07-29T14:52:36;18.59;83.46
68609;SHT31;55581;46.718;7.690;2022-07-29T14:55:04;18.57;83.80
68609;SHT31;55581;46.718;7.690;2022-07-29T14:57:30;18.54;83.74
68609;SHT31;55581;46.718;7.690;2022-07-29T14:59:55;18.48;83.64
68609;SHT31;55581;46.718;7.690;2022-07-29T15:02:21;18.48;82.73
68609;SHT31;55581;46.718;7.690;2022-07-29T15:04:46;18.44;82.17
68609;SHT31;55581;46.718;7.690;2022-07-29T15:07:14;18.47;83.11
68609;SHT31;55581;46.718;7.690;2022-07-29T15:09:39;18.59;82.54
68609;SHT31;55581;46.718;7.690;2022-07-29T15:12:05;18.69;81.66
68609;SHT31;55581;46.718;7.690;2022-07-29T15:14:31;18.84;81.11
68609;SHT31;55581;46.718;7.690;2022-07-29T15:16:57;18.91;79.64
68609;SHT31;55581;46.718;7.690;2022-07-29T15:19:24;18.99;80.69
68609;SHT31;55581;46.718;7.690;2022-07-29T15:21:49;19.07;79.44
68609;SHT31;55581;46.718;7.690;2022-07-29T15:24:17;19.17;79.22
68609;SHT31;55581;46.718;7.690;2022-07-29T15:26:43;19.30;79.58
68609;SHT31;55581;46.718;7.690;2022-07-29T15:29:08;19.34;78.71
68609;SHT31;55581;46.718;7.690;2022-07-29T15:31:34;19.26;79.65
68609;SHT31;55581;46.718;7.690;2022-07-29T15:34:04;19.35;80.60
68609;SHT31;55581;46.718;7.690;2022-07-29T15:36:30;19.41;78.99
68609;SHT31;55581;46.718;7.690;2022-07-29T15:38:56;19.47;80.74
68609;SHT31;55581;46.718;7.690;2022-07-29T15:41:24;19.65;80.29
68609;SHT31;55581;46.718;7.690;2022-07-29T15:43:49;19.79;82.00
68609;SHT31;55581;46.718;7.690;2022-07-29T15:46:17;19.96;80.23
68609;SHT31;55581;46.718;7.690;2022-07-29T15:49:02;20.17;80.11
68609;SHT31;55581;46.718;7.690;2022-07-29T15:51:31;20.37;77.63
68609;SHT31;55581;46.718;7.690;2022-07-29T15:53:56;20.37;77.66
68609;SHT31;55581;46.718;7.690;2022-07-29T15:56:25;20.27;78.96
68609;SHT31;55581;46.718;7.690;2022-07-29T15:58:52;20.12;81.27
68609;SHT31;55581;46.718;7.690;2022-07-29T16:01:18;20.15;79.93
68609;SHT31;55581;46.718;7.690;2022-07-29T16:03:43;20.00;80.23
68609;SHT31;55581;46.718;7.690;2022-07-29T16:06:09;19.89;80.65
68609;SHT31;55581;46.718;7.690;2022-07-29T16:08:34;19.85;80.87
68609;SHT31;55581;46.718;7.690;2022-07-29T16:11:00;19.75;81.59
68609;SHT31;55581;46.718;7.690;2022-07-29T16:13:27;19.71;81.53
68609;SHT31;55581;46.718;7.690;2022-07-29T16:15:52;19.61;81.38
68609;SHT31;55581;46.718;7.690;2022-07-29T16:18:18;19.62;81.23
68609;SHT31;55581;46.718;7.690;2022-07-29T16:20:43;19.47;82.24
68609;SHT31;55581;46.718;7.690;2022-07-29T16:23:09;19.37;83.51
68609;SHT31;55581;46.718;7.690;2022-07-29T16:25:37;19.30;83.93
68609;SHT31;55581;46.718;7.690;2022-07-29T16:28:03;19.33;83.44
68609;SHT31;55581;46.718;7.690;2022-07-29T16:30:28;19.34;82.69
68609;SHT31;55581;46.718;7.690;2022-07-29T16:32:55;19.26;82.97
68609;SHT31;55581;46.718;7.690;2022-07-29T16:35:23;19.30;82.58
68609;SHT31;55581;46.718;7.690;2022-07-29T16:37:49;19.30;82.54